createdAt,value
2022-11-25T00:01:20.867Z,4.10
2022-11-25T00:03:48.773Z,3.38
2022-11-25T00:06:18.019Z,4.05
2022-11-25T00:08:46.460Z,3.28
2022-11-25T00:11:14.126Z,2.97
2022-11-25T00:13:42.058Z,3.38
2022-11-25T00:16:11.068Z,3.10
2022-11-25T00:18:38.740Z,2.90
2022-11-25T00:21:13.234Z,3.22
2022-11-25T00:23:40.375Z,3.17
2022-11-25T00:26:13.229Z,3.00
2022-11-25T00:28:41.244Z,3.00
2022-11-25T00:31:17.720Z,2.63
2022-11-25T00:33:46.101Z,3.55
2022-11-25T00:36:26.767Z,2.90
2022-11-25T00:38:56.168Z,3.42
2022-11-25T00:41:42.390Z,3.10
2022-11-25T00:44:33.271Z,3.60
2022-11-25T00:47:00.552Z,3.58
2022-11-25T00:49:28.073Z,3.60
2022-11-25T00:51:54.991Z,2.97
2022-11-25T00:54:21.752Z,3.80
2022-11-25T00:56:49.162Z,2.80
2022-11-25T00:59:15.879Z,2.97
2022-11-25T01:01:42.377Z,2.80
2022-11-25T01:04:09.576Z,2.65
2022-11-25T01:06:37.485Z,3.40
2022-11-25T01:09:06.075Z,3.90
2022-11-25T01:11:32.833Z,4.22
2022-11-25T01:14:01.589Z,4.07
2022-11-25T01:16:29.869Z,4.20
2022-11-25T01:18:57.926Z,3.83
2022-11-25T01:21:26.863Z,3.42
2022-11-25T01:23:54.028Z,3.40
2022-11-25T01:26:23.979Z,3.22
2022-11-25T01:29:01.863Z,3.10
2022-11-25T01:31:31.589Z,4.13
2022-11-25T01:34:02.001Z,3.60
2022-11-25T01:36:29.066Z,3.00
2022-11-25T01:38:58.038Z,3.30
2022-11-25T01:41:28.170Z,2.33
2022-11-25T01:44:27.021Z,3.55
2022-11-25T01:47:18.540Z,4.20
2022-11-25T01:50:02.360Z,3.10
2022-11-25T01:52:53.296Z,2.38
2022-11-25T01:55:44.779Z,2.75
2022-11-25T01:58:37.010Z,1.95
2022-11-25T02:01:24.305Z,3.03
2022-11-25T02:04:12.766Z,3.03
2022-11-25T02:07:05.544Z,3.17
2022-11-25T02:09:33.524Z,2.85
2022-11-25T02:12:01.085Z,2.55
2022-11-25T02:14:29.512Z,3.28
2022-11-25T02:16:56.251Z,3.10
2022-11-25T02:19:29.739Z,3.00
2022-11-25T02:22:02.596Z,2.55
2022-11-25T02:24:46.901Z,3.50
2022-11-25T02:27:13.989Z,2.70
2022-11-25T02:29:43.823Z,3.38
2022-11-25T02:32:10.603Z,3.15
2022-11-25T02:34:47.971Z,2.83
2022-11-25T02:37:17.484Z,3.20
2022-11-25T02:39:46.079Z,2.72
2022-11-25T02:42:13.326Z,3.22
2022-11-25T02:44:40.182Z,2.78
2022-11-25T02:47:08.331Z,3.05
2022-11-25T02:49:36.730Z,3.00
2022-11-25T02:52:03.422Z,2.95
2022-11-25T02:54:29.957Z,3.38
2022-11-25T02:56:56.687Z,2.53
2022-11-25T02:59:23.142Z,2.58
2022-11-25T03:01:50.267Z,2.33
2022-11-25T03:04:16.713Z,2.95
2022-11-25T03:06:44.259Z,3.33
2022-11-25T03:09:10.757Z,2.83
2022-11-25T03:11:56.807Z,2.90
2022-11-25T03:14:23.364Z,2.78
2022-11-25T03:16:50.272Z,3.10
2022-11-25T03:19:16.920Z,2.85
2022-11-25T03:21:43.585Z,3.05
2022-11-25T03:24:10.527Z,3.22
2022-11-25T03:26:39.795Z,2.90
2022-11-25T03:29:08.102Z,3.13
2022-11-25T03:31:35.017Z,3.00
2022-11-25T03:34:01.629Z,3.63
2022-11-25T03:36:28.419Z,2.72
2022-11-25T03:38:54.950Z,3.55
2022-11-25T03:41:23.256Z,3.20
2022-11-25T03:43:50.353Z,3.20
2022-11-25T03:46:17.270Z,3.30
2022-11-25T03:48:44.183Z,3.08
2022-11-25T03:51:10.930Z,2.97
2022-11-25T03:53:38.404Z,3.22
2022-11-25T03:56:08.097Z,2.80
2022-11-25T03:58:34.755Z,3.38
2022-11-25T04:01:04.479Z,3.45
2022-11-25T04:03:31.608Z,4.03
2022-11-25T04:05:58.720Z,2.78
2022-11-25T04:08:25.515Z,3.25
2022-11-25T04:10:52.756Z,3.83
2022-11-25T04:13:23.607Z,3.38
2022-11-25T04:15:51.836Z,3.97
2022-11-25T04:18:19.910Z,3.50
2022-11-25T04:20:49.646Z,3.75
2022-11-25T04:23:16.560Z,3.28
2022-11-25T04:25:51.548Z,3.67
2022-11-25T04:28:24.791Z,3.30
2022-11-25T04:30:51.243Z,3.97
2022-11-25T04:33:17.819Z,3.22
2022-11-25T04:35:45.851Z,3.58
2022-11-25T04:38:13.320Z,3.80
2022-11-25T04:40:40.445Z,3.90
2022-11-25T04:43:16.796Z,3.40
2022-11-25T04:48:37.209Z,3.83
2022-11-25T04:51:04.414Z,3.17
2022-11-25T04:53:31.550Z,3.70
2022-11-25T04:55:58.053Z,4.53
2022-11-25T04:58:43.746Z,3.38
2022-11-25T05:01:10.388Z,3.25
2022-11-25T05:03:48.091Z,3.00
2022-11-25T05:06:16.265Z,3.13
2022-11-25T05:08:42.704Z,2.85
2022-11-25T05:11:10.223Z,3.40
2022-11-25T05:13:37.510Z,3.25
2022-11-25T05:16:05.538Z,3.40
2022-11-25T05:18:32.089Z,3.08
2022-11-25T05:21:03.738Z,2.97
2022-11-25T05:23:33.874Z,3.08
2022-11-25T05:26:01.671Z,3.63
2022-11-25T05:28:37.807Z,3.33
2022-11-25T05:31:04.730Z,3.05
2022-11-25T05:33:31.969Z,3.17
2022-11-25T05:36:02.305Z,3.20
2022-11-25T05:38:39.826Z,3.40
2022-11-25T05:41:10.965Z,3.30
2022-11-25T05:43:39.888Z,2.95
2022-11-25T05:46:08.078Z,2.90
2022-11-25T05:48:36.322Z,3.30
2022-11-25T05:51:04.974Z,3.30
2022-11-25T05:53:32.680Z,3.92
2022-11-25T05:56:02.960Z,3.97
2022-11-25T05:58:50.073Z,3.37
2022-11-25T06:01:17.291Z,3.55
2022-11-25T06:03:45.246Z,3.47
2022-11-25T06:06:12.921Z,3.85
2022-11-25T06:08:40.334Z,3.50
2022-11-25T06:11:10.361Z,3.83
2022-11-25T06:13:38.120Z,3.40
2022-11-25T06:16:10.942Z,3.95
2022-11-25T06:18:38.078Z,3.97
2022-11-25T06:21:08.112Z,3.78
2022-11-25T06:23:36.112Z,4.03
2022-11-25T06:26:24.917Z,3.50
2022-11-25T06:28:55.044Z,2.90
2022-11-25T06:31:25.220Z,2.55
2022-11-25T06:34:10.683Z,2.92
2022-11-25T06:36:38.803Z,3.90
2022-11-25T06:39:05.455Z,3.38
2022-11-25T06:41:31.836Z,4.05
2022-11-25T06:43:58.571Z,3.83
2022-11-25T06:46:25.642Z,3.92
2022-11-25T06:48:55.637Z,4.40
2022-11-25T06:51:24.434Z,3.90
2022-11-25T06:53:50.904Z,4.38
2022-11-25T06:56:27.037Z,4.40
2022-11-25T06:58:54.590Z,4.30
2022-11-25T07:01:26.462Z,4.47
2022-11-25T07:04:04.664Z,4.40
2022-11-25T07:06:33.637Z,4.20
2022-11-25T07:09:01.027Z,4.55
2022-11-25T07:11:36.389Z,4.60
2022-11-25T07:14:06.019Z,4.13
2022-11-25T07:16:33.825Z,4.47
2022-11-25T07:19:02.052Z,4.60
2022-11-25T07:21:30.722Z,3.75
2022-11-25T07:23:59.915Z,4.47
2022-11-25T07:26:29.665Z,4.80
2022-11-25T07:28:59.454Z,4.50
2022-11-25T07:31:32.429Z,4.65
2022-11-25T07:34:02.664Z,5.00
2022-11-25T07:36:31.385Z,4.85
2022-11-25T07:38:59.826Z,4.28
2022-11-25T07:41:28.464Z,4.88
2022-11-25T07:43:57.934Z,3.53
2022-11-25T07:46:34.009Z,3.58
2022-11-25T07:49:03.540Z,3.30
2022-11-25T07:51:36.776Z,2.58
2022-11-25T07:54:06.217Z,2.50
2022-11-25T07:56:34.798Z,3.03
2022-11-25T07:59:02.748Z,3.78
2022-11-25T08:01:29.333Z,4.53
2022-11-25T08:03:56.523Z,5.38
2022-11-25T08:06:26.227Z,4.22
2022-11-25T08:08:55.605Z,3.90
2022-11-25T08:11:29.009Z,4.20
2022-11-25T08:13:57.302Z,4.28
2022-11-25T08:16:27.336Z,4.03
2022-11-25T08:18:59.228Z,3.17
2022-11-25T08:21:25.985Z,3.97
2022-11-25T08:23:53.620Z,3.47
2022-11-25T08:26:22.956Z,3.28
2022-11-25T08:28:49.894Z,3.50
2022-11-25T08:31:20.226Z,2.58
2022-11-25T08:33:47.716Z,2.95
2022-11-25T08:36:15.432Z,2.58
2022-11-25T08:38:43.799Z,1.98
2022-11-25T08:41:17.345Z,2.65
2022-11-25T08:43:44.616Z,1.95
2022-11-25T08:46:13.565Z,2.92
2022-11-25T08:48:42.440Z,2.00
2022-11-25T08:51:14.992Z,2.55
2022-11-25T08:53:42.526Z,2.22
2022-11-25T08:56:10.720Z,2.47
2022-11-25T08:58:37.775Z,2.22
2022-11-25T09:01:06.601Z,2.40
2022-11-25T09:03:38.953Z,2.05
2022-11-25T09:06:07.024Z,3.28
2022-11-25T09:08:34.448Z,2.72
2022-11-25T09:11:01.071Z,2.83
2022-11-25T09:13:28.297Z,2.70
2022-11-25T09:15:55.929Z,2.72
2022-11-25T09:18:26.103Z,2.60
2022-11-25T09:20:53.801Z,2.83
2022-11-25T09:23:20.666Z,2.60
2022-11-25T09:25:55.674Z,2.78
2022-11-25T09:28:23.823Z,2.83
2022-11-25T09:30:50.583Z,2.75
2022-11-25T09:33:17.502Z,3.05
2022-11-25T09:35:44.299Z,3.00
2022-11-25T09:38:10.796Z,2.50
2022-11-25T09:41:00.866Z,3.25
2022-11-25T09:44:10.600Z,3.42
2022-11-25T09:47:01.538Z,3.65
2022-11-25T09:49:40.292Z,3.22
2022-11-25T09:52:37.349Z,3.90
2022-11-25T09:55:16.199Z,2.95
2022-11-25T09:57:59.227Z,3.10
2022-11-25T10:00:36.489Z,3.20
2022-11-25T10:03:21.826Z,3.45
2022-11-25T10:06:05.591Z,3.50
2022-11-25T10:08:44.569Z,3.65
2022-11-25T10:11:20.551Z,3.20
2022-11-25T10:13:59.780Z,3.17
2022-11-25T10:16:39.774Z,3.33
2022-11-25T10:19:19.479Z,3.75
2022-11-25T10:21:46.674Z,3.35
2022-11-25T10:24:15.427Z,3.22
2022-11-25T10:26:45.203Z,3.10
2022-11-25T10:29:22.819Z,3.75
2022-11-25T10:31:56.118Z,3.63
2022-11-25T10:34:34.886Z,3.70
2022-11-25T10:37:03.837Z,3.45
2022-11-25T10:39:34.927Z,3.60
2022-11-25T10:42:14.924Z,3.90
2022-11-25T10:44:43.262Z,3.58
2022-11-25T10:47:27.010Z,3.58
2022-11-25T10:50:15.800Z,3.30
2022-11-25T10:52:48.046Z,3.80
2022-11-25T10:55:21.055Z,3.95
2022-11-25T10:57:47.827Z,4.43
2022-11-25T11:00:38.459Z,3.97
2022-11-25T11:03:21.671Z,3.72
2022-11-25T11:05:50.793Z,3.65
2022-11-25T11:08:21.919Z,4.10
2022-11-25T11:11:09.661Z,4.43
2022-11-25T11:13:36.136Z,4.30
2022-11-25T11:16:03.842Z,3.67
2022-11-25T11:18:41.245Z,4.05
2022-11-25T11:21:31.711Z,4.43
2022-11-25T11:24:00.003Z,4.78
2022-11-25T11:26:33.929Z,4.70
2022-11-25T11:29:17.321Z,4.07
2022-11-25T11:31:48.092Z,3.92
2022-11-25T11:34:29.669Z,3.55
2022-11-25T11:37:09.284Z,4.50
2022-11-25T11:40:10.345Z,4.27
2022-11-25T11:43:14.459Z,4.50
2022-11-25T11:46:07.104Z,4.50
2022-11-25T11:48:33.521Z,4.60
2022-11-25T11:51:07.867Z,4.53
2022-11-25T11:53:52.169Z,4.60
2022-11-25T11:56:36.675Z,4.72
2022-11-25T11:59:24.032Z,4.47
2022-11-25T12:02:16.547Z,4.38
2022-11-25T12:05:05.301Z,4.65
2022-11-25T12:07:47.539Z,4.63
2022-11-25T12:10:14.012Z,4.70
2022-11-25T12:12:48.358Z,4.97
2022-11-25T12:15:24.410Z,4.50
2022-11-25T12:18:00.465Z,4.35
2022-11-25T12:20:39.258Z,4.32
2022-11-25T12:23:15.625Z,4.30
2022-11-25T12:25:43.166Z,4.32
2022-11-25T12:28:24.259Z,4.97
2022-11-25T12:31:08.406Z,4.45
2022-11-25T12:34:00.205Z,4.38
2022-11-25T12:36:34.869Z,4.43
2022-11-25T12:39:10.380Z,4.03
2022-11-25T12:41:44.878Z,4.75
2022-11-25T12:44:23.528Z,4.13
2022-11-25T12:46:53.435Z,5.07
2022-11-25T12:49:39.044Z,5.00
2022-11-25T12:52:16.772Z,5.32
2022-11-25T12:55:05.889Z,4.30
2022-11-25T12:57:49.461Z,4.55
2022-11-25T13:00:43.528Z,4.55
2022-11-25T13:03:41.654Z,4.55
2022-11-25T13:06:16.119Z,4.40
2022-11-25T13:09:21.762Z,4.85
2022-11-25T13:12:07.525Z,4.40
2022-11-25T13:14:57.079Z,5.03
2022-11-25T13:17:25.303Z,4.43
2022-11-25T13:20:29.353Z,4.53
2022-11-25T13:23:05.244Z,4.85
2022-11-25T13:25:33.335Z,3.88
2022-11-25T13:28:03.087Z,4.47
2022-11-25T13:30:32.623Z,4.78
2022-11-25T13:33:11.316Z,4.40
2022-11-25T13:35:44.004Z,4.43
2022-11-25T13:38:30.508Z,4.65
2022-11-25T13:41:23.901Z,4.68
2022-11-25T13:43:53.536Z,4.25
2022-11-25T13:46:46.477Z,4.47
2022-11-25T13:49:27.128Z,4.30
2022-11-25T13:51:57.445Z,4.43
2022-11-25T13:54:31.587Z,5.22
2022-11-25T13:57:01.764Z,4.78
2022-11-25T13:59:51.522Z,4.25
2022-11-25T14:02:27.844Z,4.30
2022-11-25T14:05:11.253Z,4.63
2022-11-25T14:07:57.194Z,4.35
2022-11-25T14:10:27.015Z,4.38
2022-11-25T14:13:02.689Z,4.55
2022-11-25T14:15:44.084Z,5.07
2022-11-25T14:18:24.456Z,5.35
2022-11-25T14:21:16.197Z,4.60
2022-11-25T14:23:49.286Z,3.97
2022-11-25T14:26:49.398Z,4.13
2022-11-25T14:29:53.143Z,4.75
2022-11-25T14:32:43.050Z,4.95
2022-11-25T14:35:21.781Z,5.22
2022-11-25T14:38:03.122Z,5.32
2022-11-25T14:40:41.550Z,9.23
2022-11-25T14:43:14.825Z,5.15
2022-11-25T14:45:41.520Z,5.50
2022-11-25T14:48:13.209Z,3.90
2022-11-25T14:50:40.938Z,4.68
2022-11-25T14:53:11.231Z,4.90
2022-11-25T14:55:38.375Z,4.28
2022-11-25T14:58:05.295Z,4.80
2022-11-25T15:00:31.783Z,4.70
2022-11-25T15:03:06.861Z,4.55
2022-11-25T15:05:38.983Z,4.45
2022-11-25T15:08:14.395Z,4.28
2022-11-25T15:10:52.572Z,5.22
2022-11-25T15:13:40.292Z,4.22
2022-11-25T15:16:15.177Z,4.85
2022-11-25T15:19:19.252Z,5.38
2022-11-25T15:22:20.752Z,5.38
2022-11-25T15:27:33.034Z,4.45
2022-11-25T15:29:59.988Z,4.85
2022-11-25T15:32:29.965Z,4.32
2022-11-25T15:35:01.477Z,4.38
2022-11-25T15:37:28.527Z,4.45
2022-11-25T15:40:37.142Z,4.70
2022-11-25T15:43:19.494Z,4.60
2022-11-25T15:45:49.852Z,4.10
2022-11-25T15:48:27.900Z,4.32
2022-11-25T15:51:07.129Z,5.05
2022-11-25T15:53:37.672Z,4.53
2022-11-25T15:56:06.548Z,4.80
2022-11-25T15:58:33.633Z,5.10
2022-11-25T16:01:07.559Z,6.00
2022-11-25T16:03:35.363Z,4.60
2022-11-25T16:06:02.712Z,5.18
2022-11-25T16:08:37.004Z,4.85
2022-11-25T16:11:17.093Z,5.00
2022-11-25T16:13:44.604Z,5.35
2022-11-25T16:16:15.772Z,4.90
2022-11-25T16:19:08.051Z,5.45
2022-11-25T16:21:40.475Z,4.82
2022-11-25T16:24:06.996Z,5.47
2022-11-25T16:26:38.245Z,5.32
2022-11-25T16:29:19.998Z,4.60
2022-11-25T16:31:46.797Z,5.22
2022-11-25T16:34:16.054Z,5.35
2022-11-25T16:36:42.853Z,5.60
2022-11-25T16:39:09.929Z,5.05
2022-11-25T16:41:37.475Z,5.80
2022-11-25T16:44:14.182Z,5.82
2022-11-25T16:46:41.283Z,5.18
2022-11-25T16:49:14.141Z,5.32
2022-11-25T16:51:41.084Z,5.88
2022-11-25T16:54:07.732Z,5.78
2022-11-25T16:56:38.007Z,5.65
2022-11-25T16:59:05.118Z,5.43
2022-11-25T17:01:33.951Z,6.00
2022-11-25T17:04:00.803Z,5.55
2022-11-25T17:06:30.341Z,5.60
2022-11-25T17:08:57.145Z,7.23
2022-11-25T17:11:57.544Z,5.50
2022-11-25T17:14:29.381Z,6.13
2022-11-25T17:16:57.867Z,6.22
2022-11-25T17:19:24.817Z,5.70
2022-11-25T17:21:51.834Z,6.45
2022-11-25T17:24:21.253Z,6.43
2022-11-25T17:26:56.791Z,6.80
2022-11-25T17:29:31.983Z,7.00
2022-11-25T17:31:58.945Z,6.15
2022-11-25T17:34:25.526Z,6.65
2022-11-25T17:36:52.495Z,7.20
2022-11-25T17:39:18.957Z,5.47
2022-11-25T17:41:48.694Z,6.50
2022-11-25T17:44:22.469Z,7.43
2022-11-25T17:46:50.835Z,6.50
2022-11-25T17:49:17.825Z,7.13
2022-11-25T17:51:44.965Z,5.82
2022-11-25T17:54:12.495Z,6.05
2022-11-25T17:56:41.605Z,5.55
2022-11-25T17:59:24.227Z,5.70
2022-11-25T18:01:50.857Z,5.28
2022-11-25T18:04:26.033Z,5.60
2022-11-25T18:06:53.233Z,5.90
2022-11-25T18:09:20.210Z,6.38
2022-11-25T18:11:50.522Z,7.50
2022-11-25T18:14:30.165Z,7.53
2022-11-25T18:16:58.926Z,5.87
2022-11-25T18:19:25.536Z,5.82
2022-11-25T18:21:52.636Z,7.80
2022-11-25T18:24:19.238Z,7.53
2022-11-25T18:26:49.697Z,6.32
2022-11-25T18:31:51.801Z,6.88
2022-11-25T18:34:18.503Z,5.70
2022-11-25T18:36:45.308Z,6.32
2022-11-25T18:39:12.339Z,6.85
2022-11-25T18:41:40.996Z,6.57
2022-11-25T18:44:36.119Z,7.40
2022-11-25T18:47:02.660Z,6.47
2022-11-25T18:49:29.196Z,7.13
2022-11-25T18:51:55.914Z,6.30
2022-11-25T18:54:22.448Z,6.43
2022-11-25T18:56:51.623Z,5.78
2022-11-25T18:59:42.599Z,7.13
2022-11-25T19:02:18.394Z,6.80
2022-11-25T19:04:45.823Z,7.50
2022-11-25T19:07:12.966Z,7.55
2022-11-25T19:09:39.469Z,6.85
2022-11-25T19:12:07.518Z,7.43
2022-11-25T19:14:37.587Z,7.18
2022-11-25T19:17:09.871Z,7.40
2022-11-25T19:19:38.163Z,6.72
2022-11-25T19:22:12.530Z,5.45
2022-11-25T19:24:39.909Z,6.03
2022-11-25T19:27:11.091Z,5.75
2022-11-25T19:29:42.202Z,7.03
2022-11-25T19:32:20.898Z,17.70
2022-11-25T19:34:55.232Z,15.48
2022-11-25T19:37:23.080Z,13.23
2022-11-25T19:39:51.150Z,8.27
2022-11-25T19:42:17.907Z,7.18
2022-11-25T19:44:45.866Z,6.25
2022-11-25T19:47:20.571Z,6.95
2022-11-25T19:49:47.562Z,7.95
2022-11-25T19:52:20.944Z,7.32
2022-11-25T19:54:47.996Z,8.02
2022-11-25T19:57:22.282Z,7.03
2022-11-25T19:59:49.163Z,5.70
2022-11-25T20:02:19.683Z,6.43
2022-11-25T20:07:17.062Z,6.70
2022-11-25T20:09:43.891Z,7.15
2022-11-25T20:12:20.757Z,6.57
2022-11-25T20:14:48.655Z,6.65
2022-11-25T20:17:24.516Z,6.70
2022-11-25T20:19:53.583Z,7.28
2022-11-25T20:22:25.877Z,6.38
2022-11-25T20:24:54.139Z,6.72
2022-11-25T20:27:25.349Z,6.43
2022-11-25T20:29:51.971Z,7.35
2022-11-25T20:32:30.228Z,5.55
2022-11-25T20:34:58.313Z,7.78
2022-11-25T20:37:26.536Z,7.38
2022-11-25T20:39:55.335Z,7.50
2022-11-25T20:42:22.479Z,7.88
2022-11-25T20:44:53.234Z,6.55
2022-11-25T20:47:24.323Z,6.93
2022-11-25T20:49:50.745Z,6.85
2022-11-25T20:52:31.072Z,6.60
2022-11-25T20:54:58.507Z,6.72
2022-11-25T20:57:25.167Z,6.65
2022-11-25T20:59:51.925Z,6.53
2022-11-25T21:02:21.794Z,6.07
2022-11-25T21:04:48.380Z,6.18
2022-11-25T21:07:17.812Z,6.47
2022-11-25T21:09:44.480Z,6.18
2022-11-25T21:12:19.235Z,6.03
2022-11-25T21:14:46.396Z,5.88
2022-11-25T21:17:12.926Z,5.65
2022-11-25T21:19:39.437Z,6.13
2022-11-25T21:22:05.980Z,5.47
2022-11-25T21:24:40.235Z,5.50
2022-11-25T21:27:14.477Z,6.07
2022-11-25T21:29:43.483Z,6.15
2022-11-25T21:32:25.405Z,5.47
2022-11-25T21:34:52.527Z,6.10
2022-11-25T21:37:26.850Z,5.40
2022-11-25T21:39:53.628Z,6.93
2022-11-25T21:42:22.147Z,5.38
2022-11-25T21:44:50.715Z,5.72
2022-11-25T21:47:29.823Z,5.60
2022-11-25T21:49:57.939Z,5.38
2022-11-25T21:52:24.704Z,5.15
2022-11-25T21:54:51.202Z,5.93
2022-11-25T21:57:24.154Z,5.80
2022-11-25T21:59:50.734Z,6.00
2022-11-25T22:02:19.659Z,5.68
2022-11-25T22:04:46.467Z,6.70
2022-11-25T22:07:13.300Z,5.63
2022-11-25T22:09:40.627Z,5.20
2022-11-25T22:12:30.179Z,6.20
2022-11-25T22:14:59.904Z,6.03
2022-11-25T22:17:27.069Z,6.20
2022-11-25T22:19:53.710Z,5.95
2022-11-25T22:22:20.653Z,6.38
2022-11-25T22:24:47.544Z,5.35
2022-11-25T22:27:21.181Z,6.53
2022-11-25T22:29:49.000Z,5.50
2022-11-25T22:32:17.229Z,6.28
2022-11-25T22:34:44.704Z,6.10
2022-11-25T22:37:20.474Z,7.00
2022-11-25T22:39:47.382Z,7.05
2022-11-25T22:42:32.312Z,5.43
2022-11-25T22:45:01.325Z,6.07
2022-11-25T22:47:30.532Z,6.18
2022-11-25T22:49:57.474Z,6.30
2022-11-25T22:52:27.469Z,5.55
2022-11-25T22:54:54.262Z,5.25
2022-11-25T22:57:22.402Z,5.68
2022-11-25T22:59:49.454Z,5.57
2022-11-25T23:02:21.608Z,5.35
2022-11-25T23:04:53.464Z,5.10
2022-11-25T23:07:21.590Z,5.38
2022-11-25T23:09:49.082Z,5.70
2022-11-25T23:12:16.148Z,5.35
2022-11-25T23:14:43.837Z,4.95
2022-11-25T23:17:19.281Z,5.30
2022-11-25T23:19:46.285Z,5.40
2022-11-25T23:22:12.861Z,5.63
2022-11-25T23:24:42.382Z,5.90
2022-11-25T23:27:08.838Z,7.38
2022-11-25T23:29:36.060Z,5.95
2022-11-25T23:32:15.299Z,5.95
2022-11-25T23:34:42.058Z,5.53
2022-11-25T23:37:12.417Z,5.82
2022-11-25T23:39:39.439Z,5.35
2022-11-25T23:42:16.453Z,6.15
2022-11-25T23:44:43.166Z,5.97
2022-11-25T23:47:16.750Z,5.95
2022-11-25T23:49:47.034Z,5.97
2022-11-25T23:52:18.653Z,5.50
2022-11-25T23:54:47.259Z,6.05
2022-11-25T23:57:16.608Z,5.90
2022-11-25T23:59:44.165Z,6.32
